Estación Meteorológica Peña el Pijo (Robertgarden) [ 08/17/18 05:39:10 CEST ]

Fecha Hora Presion(HPa) Temp (°C) Humedad % Rocio (°C) Viento ( m/s) Direccion Lluvia 1Hora(mm) Lluvia 24H(mm) LLuvia Total(mm)
2018-Feb-02 01:01:54 994.100 0.7 84 -1.7       3.62 66.30
2018-Feb-02 02:02:21 993.900 0.7 85 -1.6       3.62 66.30
2018-Feb-02 03:02:24 993.800 0.5 86 -1.6       3.62 66.30
2018-Feb-02 04:03:06 993.800 0.4 86 -1.7       3.62 66.30
2018-Feb-02 05:01:44 993.700 0.2 87 -1.7       3.62 66.30
2018-Feb-02 06:01:44 993.700 0.1 86 -1.9       3.62 66.30
2018-Feb-02 07:01:43 993.900 0.1 86 -1.9       3.62 66.30
2018-Feb-02 08:01:48 994.700 -0.7 86 -2.7       3.62 66.30
2018-Feb-02 09:01:49 995.700 -1.2 85 -3.4       3.62 66.30
2018-Feb-02 10:01:56 996.200 -0.8 85 -3.0       3.62 66.30
2018-Feb-02 11:01:40 997.100 -0.4 82 -3.1       3.62 66.30
2018-Feb-02 12:01:33 997.700 0.3 80 -2.7       3.62 66.30
2018-Feb-02 13:01:47 998.300 0.4 79 -2.8 1.2 NW   3.62 66.30
2018-Feb-02 14:01:45 998.000 1.3 78 -2.2       3.62 66.30
2018-Feb-02 15:01:44 998.400 3.4 73 -1.0     1.03 4.66 67.34
2018-Feb-02 16:02:03 999.100 3.9 69 -1.3     2.07 6.73 69.41
2018-Feb-02 17:01:40 999.500 3.8 66 -1.8     1.03 7.77 70.44
2018-Feb-02 18:01:32 1000.200 1.9 68 -3.4       7.77 70.44
2018-Feb-02 19:01:51 1001.000 0.8 72 -3.7       7.77 70.44
2018-Feb-02 20:01:33 1001.800 0.6 72 -3.9       7.77 70.44
2018-Feb-02 21:01:51 1002.600 -0.2 73 -4.5       5.18 70.44
2018-Feb-02 22:01:46 1003.500 -0.5 74 -4.6       4.14 70.44
2018-Feb-02 23:01:50 1003.900 -1.1 74 -5.2       4.14 70.44

Temperatura Máxima:    Temperatura Mínima:-1°
Presión Máxima:1003.900 Hpa    Presión Mínima:993.700 Hpa


Volver